Longs, South Carolina
Current Conditions -  °F | °C
As of 6:53 AM on Sunday 25 Jan 2015 (Local Time) from KCRE Reporting Station
Clear Clear  
Wind Chill: 37°   Ceiling: Unl
Heat Index: 37°   Visibility: 10mi
Dew Point: 31°   Wind: 0mph
Humidity: 79%   Direction: NA
Pressure: 29.95"   Gusts: NA
Location:  33.94°N, 78.73°W
Report Text: KCRE 251153Z 00000KT 10SM CLR 03/M01 A2995 RMK AO1 SLP144 70004 T00281006 10061 20028 51019
Loading
Personal Weather Stations






























Interactive Weather Map New forecast layout! Learn more

10-Day Weather Forecast

Advertisements
Track Severe Weather on mobile